Tropical Cyclones
[Index]
Main Index Home Page Stock Weather Photos Extreme Storms Discussion Storm News and Storm Chasing Reports Tropical Cyclones / Hurricanes / Typhoons Weather Data and Links Wild Fires / Bushfires Weather Observation Techniques Weather Picture Catalogue Tornado Pictures and Reports Stock Video Footage and DVDs for sale
Season 1988-1989 Tropical Cyclone NED Track Map
Season 1988-1989 Summaries: [BoM-AU] [JTWC-AU] [JTWC-SIO] [JTWC-SPAC] [JTWC-SH]
<<- Previous TC | JTWC 1988-1989 Season | Next TC ->>

click for intensity scale information  Lat/long Grid: Show Hide

 Date Labels: Show Hide

Joint Typhoon Warning Centre Cyclone Data

Name: NED

24 Mar 1989 12:00 UTC to 01 Apr 1989 00:00 UTC

    date/time    lat    long     hPa   cat  kts
1989-03-24 12   18.0   122.0                  25          
1989-03-24 18   18.0   120.8                  25          
1989-03-25 00   18.0   119.7                  25          
1989-03-25 06   18.0   118.6                  25          
1989-03-25 12   17.9   117.6                  25          
1989-03-25 18   17.7   116.9                  25          
1989-03-26 00   17.3   116.4                  30          
1989-03-26 06   17.2   115.7                  30          
1989-03-26 12   17.4   115.0                  35          
1989-03-26 18   17.5   114.2                  35          
1989-03-27 00   17.8   113.5            1     40          
1989-03-27 06   18.1   112.7            1     45          
1989-03-27 12   18.4   111.8            1     50          
1989-03-27 18   18.8   110.9            2     55          
1989-03-28 00   19.2   110.2            2     65          
1989-03-28 06   19.5   109.7            3     75          
1989-03-28 12   19.9   109.3            3     90          
1989-03-28 18   20.3   109.1            4    100          
1989-03-29 00   20.7   109.0            4    100          
1989-03-29 06   21.1   109.0            4    100          
1989-03-29 12   21.5   108.9            3     95          
1989-03-29 18   22.0   108.8            3     85          
1989-03-30 00   22.5   108.7            3     75          
1989-03-30 06   23.1   108.5            2     55          
1989-03-30 12   23.9   108.4                  35          
1989-03-30 18   24.9   108.5                  30          
1989-03-31 00   26.0   108.7                  30          
1989-03-31 06   27.0   109.3                  30          
1989-03-31 12   28.7   110.8                  35          
1989-03-31 18   30.7   112.7                  35          
1989-04-01 00   32.5   115.0                  35          
Winds are 1-min average.

Tropical cyclone tracks developed by Michael Bath using data from the Joint Typhoon Warning Centre Best Tracks and Google Maps.


[Australian Severe Weather index] [Copyright Notice] [Email Contacts] [Search This Site] [Privacy Policy]
Document: tropical_cyclone_ned.htm Updated: 18 September 2016